createdAt,value
2019-05-22T00:02:37.054Z,38.60
2019-05-22T00:05:33.873Z,38.70
2019-05-22T00:08:26.656Z,38.70
2019-05-22T00:11:20.236Z,38.60
2019-05-22T00:14:14.648Z,38.60
2019-05-22T00:17:08.547Z,38.60
2019-05-22T00:20:01.555Z,38.60
2019-05-22T00:22:56.068Z,38.60
2019-05-22T00:25:48.585Z,38.70
2019-05-22T00:28:41.630Z,38.70
2019-05-22T00:31:34.075Z,38.80
2019-05-22T00:34:27.148Z,38.70
2019-05-22T00:37:19.776Z,38.80
2019-05-22T00:40:16.222Z,38.70
2019-05-22T00:43:14.032Z,38.80
2019-05-22T00:46:06.168Z,38.90
2019-05-22T00:48:58.738Z,38.90
2019-05-22T00:52:04.967Z,38.90
2019-05-22T00:55:10.600Z,38.90
2019-05-22T00:58:09.802Z,39.00
2019-05-22T01:01:05.161Z,39.00
2019-05-22T01:03:59.081Z,39.00
2019-05-22T01:06:53.223Z,38.90
2019-05-22T01:09:45.379Z,39.00
2019-05-22T01:12:44.122Z,39.00
2019-05-22T01:15:36.857Z,39.00
2019-05-22T01:18:29.720Z,38.90
2019-05-22T01:21:26.013Z,39.00
2019-05-22T01:24:18.187Z,39.10
2019-05-22T01:27:12.313Z,39.10
2019-05-22T01:30:06.738Z,39.00
2019-05-22T01:33:02.754Z,39.10
2019-05-22T01:36:12.410Z,39.60
2019-05-22T01:39:16.534Z,39.00
2019-05-22T01:42:11.536Z,39.10
2019-05-22T01:45:06.857Z,39.20
2019-05-22T01:48:06.540Z,39.10
2019-05-22T01:50:59.784Z,39.20
2019-05-22T01:53:52.912Z,39.20
2019-05-22T01:56:46.933Z,39.30
2019-05-22T01:59:40.260Z,39.20
2019-05-22T02:02:34.362Z,39.40
2019-05-22T02:05:27.850Z,39.30
2019-05-22T02:08:21.751Z,39.40
2019-05-22T02:11:17.381Z,39.40
2019-05-22T02:14:13.347Z,39.40
2019-05-22T02:17:07.120Z,39.40
2019-05-22T02:20:01.031Z,39.40
2019-05-22T02:22:55.673Z,39.40
2019-05-22T02:25:49.803Z,39.20
2019-05-22T02:28:45.000Z,39.20
2019-05-22T02:31:39.937Z,39.20
2019-05-22T02:34:33.125Z,39.20
2019-05-22T02:37:28.339Z,38.90
2019-05-22T02:40:28.314Z,38.90
2019-05-22T02:43:22.443Z,38.90
2019-05-22T02:46:16.591Z,38.90
2019-05-22T02:49:11.105Z,38.70
2019-05-22T02:52:04.761Z,38.80
2019-05-22T02:54:58.460Z,38.70
2019-05-22T02:57:51.294Z,38.70
2019-05-22T03:00:54.453Z,38.50
2019-05-22T03:03:48.473Z,38.70
2019-05-22T03:06:41.235Z,38.70
2019-05-22T03:09:34.679Z,38.70
2019-05-22T03:12:28.251Z,38.70
2019-05-22T03:15:22.875Z,38.70
2019-05-22T03:18:16.064Z,38.80
2019-05-22T03:21:10.042Z,38.80
2019-05-22T03:24:03.316Z,38.90
2019-05-22T03:26:56.857Z,38.90
2019-05-22T03:29:55.190Z,39.00
2019-05-22T03:32:48.657Z,39.00
2019-05-22T03:35:47.358Z,39.60
2019-05-22T03:38:40.231Z,39.00
2019-05-22T03:41:33.333Z,39.10
2019-05-22T03:44:26.405Z,39.10
2019-05-22T03:47:19.551Z,39.10
2019-05-22T03:50:12.860Z,39.10
2019-05-22T03:53:11.378Z,39.10
2019-05-22T03:56:04.033Z,39.10
2019-05-22T03:58:57.336Z,39.10
2019-05-22T04:01:49.935Z,39.20
2019-05-22T04:04:45.317Z,39.10
2019-05-22T04:07:37.970Z,39.10
2019-05-22T04:10:31.890Z,39.20
2019-05-22T04:13:24.452Z,39.10
2019-05-22T04:16:20.288Z,39.20
2019-05-22T04:19:13.086Z,39.00
2019-05-22T04:22:07.623Z,39.10
2019-05-22T04:25:00.385Z,39.30
2019-05-22T04:27:53.664Z,39.20
2019-05-22T04:30:46.468Z,39.30
2019-05-22T04:33:39.572Z,39.30
2019-05-22T04:36:33.270Z,39.60
2019-05-22T04:39:27.114Z,39.30
2019-05-22T04:42:20.192Z,39.40
2019-05-22T04:45:17.389Z,39.50
2019-05-22T04:48:10.617Z,39.90
2019-05-22T04:51:07.136Z,37.50
2019-05-22T04:54:00.442Z,36.30
2019-05-22T04:56:53.602Z,37.50
2019-05-22T04:59:48.813Z,47.60
2019-05-22T05:02:43.130Z,41.00
2019-05-22T05:05:43.674Z,37.60
2019-05-22T05:08:41.715Z,35.40
2019-05-22T05:11:46.846Z,34.00
2019-05-22T05:14:46.839Z,32.90
2019-05-22T05:17:44.868Z,33.30
2019-05-22T05:20:39.406Z,33.40
2019-05-22T05:23:34.697Z,33.40
2019-05-22T05:26:34.785Z,33.40
2019-05-22T05:29:29.991Z,33.60
2019-05-22T05:35:51.893Z,33.70
2019-05-22T05:38:58.243Z,33.60
2019-05-22T05:41:54.814Z,33.60
2019-05-22T05:44:49.054Z,33.70
2019-05-22T05:47:56.575Z,33.60
2019-05-22T05:51:10.754Z,33.70
2019-05-22T05:54:16.729Z,33.50
2019-05-22T05:57:34.578Z,33.60
2019-05-22T06:00:30.290Z,33.70
2019-05-22T06:03:33.881Z,33.70
2019-05-22T06:06:51.534Z,33.70
2019-05-22T06:09:56.065Z,33.70
2019-05-22T06:12:57.565Z,34.10
2019-05-22T06:16:28.285Z,34.00
2019-05-22T06:19:21.286Z,33.90
2019-05-22T06:25:58.363Z,33.90
2019-05-22T06:28:53.768Z,34.00
2019-05-22T06:32:10.904Z,34.00
2019-05-22T06:35:07.737Z,33.90
2019-05-22T06:38:05.875Z,34.00
2019-05-22T06:40:59.984Z,34.00
2019-05-22T06:44:11.084Z,34.00
2019-05-22T06:47:11.281Z,34.70
2019-05-22T06:50:06.584Z,34.40
2019-05-22T06:53:09.782Z,34.80
2019-05-22T06:56:08.015Z,34.90
2019-05-22T06:59:12.070Z,35.00
2019-05-22T07:02:11.780Z,34.90
2019-05-22T07:05:09.053Z,34.90
2019-05-22T07:08:05.872Z,35.10
2019-05-22T07:11:02.289Z,35.30
2019-05-22T07:14:00.489Z,35.40
2019-05-22T07:16:54.157Z,35.10
2019-05-22T07:19:55.637Z,35.00
2019-05-22T07:22:50.906Z,35.00
2019-05-22T07:25:47.061Z,34.40
2019-05-22T07:28:45.559Z,34.90
2019-05-22T07:31:40.013Z,34.90
2019-05-22T07:34:35.186Z,35.10
2019-05-22T07:37:32.710Z,36.40
2019-05-22T07:40:28.246Z,37.00
2019-05-22T07:43:24.770Z,37.40
2019-05-22T07:46:30.521Z,36.70
2019-05-22T07:49:24.669Z,36.00
2019-05-22T07:52:23.533Z,35.60
2019-05-22T07:55:19.497Z,35.40
2019-05-22T07:58:16.831Z,35.30
2019-05-22T08:01:12.670Z,35.20
2019-05-22T08:04:09.864Z,35.00
2019-05-22T08:07:07.754Z,34.90
2019-05-22T08:10:05.673Z,34.20
2019-05-22T08:13:02.785Z,35.00
2019-05-22T08:15:56.900Z,34.90
2019-05-22T08:18:53.390Z,34.90
2019-05-22T08:21:49.926Z,35.60
2019-05-22T08:24:50.899Z,34.90
2019-05-22T08:27:47.063Z,35.00
2019-05-22T08:30:43.177Z,34.80
2019-05-22T08:33:38.815Z,35.00
2019-05-22T08:36:33.390Z,35.20
2019-05-22T08:39:27.721Z,35.10
2019-05-22T08:42:24.524Z,35.40
2019-05-22T08:45:19.234Z,35.40
2019-05-22T08:48:15.113Z,36.00
2019-05-22T08:51:12.724Z,35.30
2019-05-22T08:54:10.331Z,35.30
2019-05-22T08:57:06.138Z,35.30
2019-05-22T09:00:00.952Z,35.30
2019-05-22T09:02:55.658Z,35.40
2019-05-22T09:05:53.428Z,35.30
2019-05-22T09:08:50.545Z,35.30
2019-05-22T09:11:47.850Z,35.60
2019-05-22T09:14:43.126Z,34.80
2019-05-22T09:17:44.842Z,34.10
2019-05-22T09:20:49.385Z,34.10
2019-05-22T09:23:38.077Z,33.90
2019-05-22T09:26:31.980Z,33.80
2019-05-22T09:29:25.495Z,33.70
2019-05-22T09:32:20.284Z,33.90
2019-05-22T09:35:14.890Z,36.40
2019-05-22T09:38:10.047Z,37.40
2019-05-22T09:41:04.597Z,36.60
2019-05-22T09:44:01.483Z,36.40
2019-05-22T09:46:55.726Z,36.00
2019-05-22T09:49:59.811Z,35.80
2019-05-22T09:52:57.678Z,35.80
2019-05-22T09:55:49.673Z,35.80
2019-05-22T09:58:42.925Z,35.60
2019-05-22T10:01:42.030Z,35.50
2019-05-22T10:04:35.860Z,35.80
2019-05-22T10:07:29.597Z,35.80
2019-05-22T10:10:23.183Z,36.70
2019-05-22T10:13:17.433Z,38.30
2019-05-22T10:16:13.255Z,38.40
2019-05-22T10:19:08.533Z,38.30
2019-05-22T10:22:02.095Z,38.20
2019-05-22T10:25:14.089Z,38.30
2019-05-22T10:27:52.071Z,37.70
2019-05-22T10:30:49.060Z,37.10
2019-05-22T10:33:44.737Z,37.00
2019-05-22T10:36:43.218Z,37.60
2019-05-22T10:39:36.322Z,37.90
2019-05-22T10:42:31.739Z,37.50
2019-05-22T10:45:26.916Z,36.80
2019-05-22T10:48:20.394Z,36.80
2019-05-22T10:51:13.986Z,37.10
2019-05-22T10:54:11.784Z,37.50
2019-05-22T10:57:06.978Z,37.00
2019-05-22T11:00:01.420Z,36.20
2019-05-22T11:02:56.239Z,35.90
2019-05-22T11:06:06.424Z,35.60
2019-05-22T11:08:55.743Z,35.50
2019-05-22T11:11:51.433Z,35.40
2019-05-22T11:14:49.325Z,35.30
2019-05-22T11:17:46.348Z,35.20
2019-05-22T11:20:42.462Z,35.30
2019-05-22T11:23:50.344Z,35.30
2019-05-22T11:26:32.068Z,35.40
2019-05-22T11:29:27.642Z,35.40
2019-05-22T11:32:22.666Z,35.50
2019-05-22T11:35:18.551Z,35.70
2019-05-22T11:38:14.444Z,35.80
2019-05-22T11:41:10.640Z,35.90
2019-05-22T11:44:07.890Z,36.00
2019-05-22T11:47:03.031Z,36.10
2019-05-22T11:49:59.670Z,36.20
2019-05-22T11:52:56.936Z,36.30
2019-05-22T11:55:57.401Z,36.30
2019-05-22T11:58:53.077Z,36.50
2019-05-22T12:01:50.769Z,36.50
2019-05-22T12:04:48.986Z,36.60
2019-05-22T12:07:45.602Z,36.70
2019-05-22T12:10:41.872Z,36.90
2019-05-22T12:13:40.514Z,37.00
2019-05-22T12:16:34.654Z,37.00
2019-05-22T12:19:28.459Z,37.10
2019-05-22T12:22:27.183Z,37.20
2019-05-22T12:25:24.718Z,37.20
2019-05-22T12:28:22.632Z,37.20
2019-05-22T12:31:19.875Z,37.20
2019-05-22T12:34:15.152Z,37.20
2019-05-22T12:37:11.604Z,37.20
2019-05-22T12:40:08.329Z,37.20
2019-05-22T12:43:07.252Z,37.30
2019-05-22T12:46:01.678Z,37.30
2019-05-22T12:48:59.717Z,37.30
2019-05-22T12:51:54.571Z,38.00
2019-05-22T12:54:52.413Z,37.30
2019-05-22T12:57:44.096Z,37.50
2019-05-22T13:00:37.697Z,37.50
2019-05-22T13:03:31.291Z,37.60
2019-05-22T13:06:24.583Z,37.70
2019-05-22T13:09:18.198Z,37.70
2019-05-22T13:12:16.937Z,37.80
2019-05-22T13:15:14.749Z,37.80
2019-05-22T13:18:19.561Z,37.90
2019-05-22T13:21:16.057Z,38.00
2019-05-22T13:24:18.647Z,38.10
2019-05-22T13:27:12.688Z,38.10
2019-05-22T13:30:06.963Z,38.10
2019-05-22T13:33:01.363Z,38.20
2019-05-22T13:35:56.231Z,38.30
2019-05-22T13:38:51.053Z,38.30
2019-05-22T13:41:44.537Z,38.30
2019-05-22T13:44:38.190Z,38.30
2019-05-22T13:47:32.075Z,38.40
2019-05-22T13:50:28.866Z,38.50
2019-05-22T13:53:22.726Z,38.50
2019-05-22T13:56:16.287Z,38.50
2019-05-22T13:59:10.754Z,38.70
2019-05-22T14:02:04.464Z,38.70
2019-05-22T14:04:58.790Z,38.70
2019-05-22T14:07:54.353Z,38.80
2019-05-22T14:10:50.057Z,38.90
2019-05-22T14:13:43.857Z,38.70
2019-05-22T14:16:48.057Z,39.30
2019-05-22T14:19:32.369Z,39.00
2019-05-22T14:22:26.375Z,39.10
2019-05-22T14:25:21.784Z,39.10
2019-05-22T14:28:16.707Z,39.20
2019-05-22T14:31:10.244Z,39.30
2019-05-22T14:34:05.624Z,39.20
2019-05-22T14:36:59.056Z,39.30
2019-05-22T14:39:53.351Z,39.40
2019-05-22T14:42:46.170Z,39.50
2019-05-22T14:45:40.986Z,39.50
2019-05-22T14:48:35.757Z,39.50
2019-05-22T14:51:29.554Z,39.50
2019-05-22T14:54:23.420Z,39.60
2019-05-22T14:57:16.348Z,39.60
2019-05-22T15:00:11.140Z,39.60
2019-05-22T15:03:04.905Z,39.60
2019-05-22T15:05:58.026Z,39.70
2019-05-22T15:08:52.070Z,39.80
2019-05-22T15:11:45.074Z,39.80
2019-05-22T15:14:38.572Z,39.80
2019-05-22T15:17:33.189Z,39.90
2019-05-22T15:20:29.603Z,39.90
2019-05-22T15:23:23.155Z,40.00
2019-05-22T15:26:15.933Z,40.00
2019-05-22T15:29:09.312Z,40.10
2019-05-22T15:32:02.516Z,40.10
2019-05-22T15:34:57.331Z,40.10
2019-05-22T15:37:51.321Z,40.20
2019-05-22T15:40:44.516Z,40.20
2019-05-22T15:43:38.016Z,40.30
2019-05-22T15:46:32.389Z,40.30
2019-05-22T15:49:26.282Z,40.40
2019-05-22T15:52:19.306Z,40.40
2019-05-22T15:55:14.247Z,40.50
2019-05-22T15:58:08.145Z,40.50
2019-05-22T16:01:03.194Z,40.60
2019-05-22T16:03:57.528Z,40.60
2019-05-22T16:06:51.076Z,40.70
2019-05-22T16:09:45.765Z,40.70
2019-05-22T16:12:40.423Z,40.80
2019-05-22T16:15:35.616Z,40.80
2019-05-22T16:18:36.506Z,40.90
2019-05-22T16:21:30.106Z,40.90
2019-05-22T16:24:23.505Z,41.00
2019-05-22T16:27:16.769Z,41.00
2019-05-22T16:30:10.590Z,41.00
2019-05-22T16:33:04.861Z,41.10
2019-05-22T16:35:59.393Z,41.10
2019-05-22T16:38:53.665Z,41.10
2019-05-22T16:41:47.507Z,41.10
2019-05-22T16:44:44.785Z,41.20
2019-05-22T16:47:38.046Z,41.20
2019-05-22T16:50:33.107Z,41.20
2019-05-22T16:53:29.035Z,40.70
2019-05-22T16:56:22.150Z,41.30
2019-05-22T16:59:15.637Z,41.30
2019-05-22T17:02:08.784Z,41.40
2019-05-22T17:05:02.397Z,41.40
2019-05-22T17:07:55.885Z,41.50
2019-05-22T17:10:51.973Z,41.50
2019-05-22T17:13:45.119Z,41.50
2019-05-22T17:16:41.026Z,41.50
2019-05-22T17:19:36.241Z,41.90
2019-05-22T17:22:31.603Z,41.50
2019-05-22T17:25:26.681Z,41.50
2019-05-22T17:28:20.756Z,41.50
2019-05-22T17:31:14.720Z,41.60
2019-05-22T17:34:09.409Z,41.60
2019-05-22T17:37:03.325Z,41.60
2019-05-22T17:39:57.556Z,41.60
2019-05-22T17:42:52.130Z,41.60
2019-05-22T17:45:47.554Z,41.70
2019-05-22T17:48:42.027Z,41.90
2019-05-22T17:51:35.849Z,41.70
2019-05-22T17:54:30.201Z,41.70
2019-05-22T17:57:24.369Z,41.70
2019-05-22T18:00:39.922Z,41.70
2019-05-22T18:03:33.974Z,41.80
2019-05-22T18:06:27.450Z,41.80
2019-05-22T18:09:21.424Z,41.80
2019-05-22T18:12:16.293Z,42.50
2019-05-22T18:15:11.049Z,41.80
2019-05-22T18:18:05.417Z,41.80
2019-05-22T18:20:59.644Z,41.80
2019-05-22T18:23:52.936Z,41.80
2019-05-22T18:26:46.072Z,41.90
2019-05-22T18:29:39.207Z,41.90
2019-05-22T18:32:32.544Z,42.00
2019-05-22T18:35:25.599Z,41.90
2019-05-22T18:38:18.622Z,42.00
2019-05-22T18:41:12.094Z,41.90
2019-05-22T18:44:05.870Z,41.90
2019-05-22T18:46:59.056Z,41.90
2019-05-22T18:49:52.198Z,42.30
2019-05-22T18:52:47.130Z,41.90
2019-05-22T18:55:39.881Z,41.90
2019-05-22T18:58:33.401Z,42.00
2019-05-22T19:01:26.994Z,42.10
2019-05-22T19:04:20.406Z,42.00
2019-05-22T19:07:14.410Z,42.00
2019-05-22T19:10:11.039Z,42.70
2019-05-22T19:13:05.901Z,42.10
2019-05-22T19:15:59.385Z,42.10
2019-05-22T19:18:52.596Z,42.10
2019-05-22T19:21:45.800Z,42.10
2019-05-22T19:24:38.745Z,42.10
2019-05-22T19:27:32.409Z,42.20
2019-05-22T19:30:27.623Z,42.20
2019-05-22T19:33:20.600Z,42.10
2019-05-22T19:36:13.105Z,42.10
2019-05-22T19:39:06.195Z,42.10
2019-05-22T19:42:03.805Z,42.10
2019-05-22T19:44:52.789Z,42.00
2019-05-22T19:47:49.505Z,42.00
2019-05-22T19:50:44.074Z,42.10
2019-05-22T19:53:39.065Z,42.00
2019-05-22T19:56:33.919Z,42.00
2019-05-22T19:59:27.852Z,42.00
2019-05-22T20:02:23.359Z,42.00
2019-05-22T20:05:16.875Z,42.00
2019-05-22T20:08:10.152Z,42.10
2019-05-22T20:11:03.459Z,42.10
2019-05-22T20:13:57.102Z,42.10
2019-05-22T20:16:50.752Z,42.10
2019-05-22T20:19:44.055Z,42.10
2019-05-22T20:22:38.724Z,42.10
2019-05-22T20:25:33.698Z,42.10
2019-05-22T20:28:27.814Z,42.10
2019-05-22T20:31:21.849Z,42.10
2019-05-22T20:34:14.891Z,42.20
2019-05-22T20:37:08.511Z,42.20
2019-05-22T20:40:02.128Z,42.20
2019-05-22T20:42:55.907Z,42.20
2019-05-22T20:45:50.296Z,42.20
2019-05-22T20:48:44.267Z,42.30
2019-05-22T20:51:37.700Z,42.20
2019-05-22T20:54:31.794Z,42.20
2019-05-22T20:57:27.091Z,42.20
2019-05-22T21:00:21.307Z,42.20
2019-05-22T21:03:14.939Z,42.20
2019-05-22T21:06:09.767Z,42.10
2019-05-22T21:09:02.987Z,42.20
2019-05-22T21:11:56.402Z,42.20
2019-05-22T21:14:49.497Z,42.10
2019-05-22T21:17:42.731Z,42.10
2019-05-22T21:20:35.410Z,42.10
2019-05-22T21:23:30.728Z,42.10
2019-05-22T21:26:24.180Z,42.20
2019-05-22T21:29:17.099Z,42.20
2019-05-22T21:32:10.640Z,42.20
2019-05-22T21:35:04.089Z,42.10
2019-05-22T21:37:57.828Z,42.10
2019-05-22T21:40:51.786Z,42.10
2019-05-22T21:43:45.422Z,42.10
2019-05-22T21:46:39.143Z,42.10
2019-05-22T21:49:32.443Z,42.10
2019-05-22T21:52:25.860Z,42.10
2019-05-22T21:55:19.661Z,42.00
2019-05-22T21:58:13.586Z,42.10
2019-05-22T22:01:23.290Z,42.10
2019-05-22T22:04:24.104Z,42.10
2019-05-22T22:07:17.890Z,42.00
2019-05-22T22:10:11.283Z,42.00
2019-05-22T22:13:07.634Z,42.00
2019-05-22T22:15:58.830Z,42.00
2019-05-22T22:18:52.308Z,42.00
2019-05-22T22:21:45.955Z,42.00
2019-05-22T22:24:39.177Z,41.50
2019-05-22T22:27:34.030Z,42.00
2019-05-22T22:30:31.942Z,42.00
2019-05-22T22:33:27.778Z,42.00
2019-05-22T22:36:20.961Z,42.00
2019-05-22T22:39:16.104Z,42.00
2019-05-22T22:42:11.182Z,42.00
2019-05-22T22:45:06.356Z,42.00
2019-05-22T22:47:59.821Z,42.00
2019-05-22T22:50:54.199Z,42.00
2019-05-22T22:53:47.504Z,42.10
2019-05-22T22:56:41.057Z,42.10
2019-05-22T22:59:35.771Z,42.00
2019-05-22T23:02:31.842Z,42.10
2019-05-22T23:05:26.167Z,42.10
2019-05-22T23:08:21.377Z,42.10
2019-05-22T23:11:14.920Z,42.20
2019-05-22T23:14:09.258Z,42.20
2019-05-22T23:17:02.204Z,42.10
2019-05-22T23:19:53.248Z,42.10
2019-05-22T23:22:45.012Z,42.10
2019-05-22T23:25:38.523Z,42.10
2019-05-22T23:28:34.978Z,42.10
2019-05-22T23:31:27.556Z,42.10
2019-05-22T23:34:20.125Z,42.10
2019-05-22T23:37:14.356Z,42.10
2019-05-22T23:40:08.179Z,42.10
2019-05-22T23:43:01.954Z,42.10
2019-05-22T23:45:55.797Z,42.10
2019-05-22T23:48:49.296Z,42.20
2019-05-22T23:51:42.051Z,42.30
2019-05-22T23:54:34.980Z,42.20
2019-05-22T23:57:28.075Z,42.30
